Time;durP1;ratioP1;P1;durP2;ratioP2;P2;SDS_P1;SDS_P2;PMS_P1;PMS_P2;Temp;Humidity;BMP_temperature;BMP_pressure;BME280_temperature;BME280_humidity;BME280_pressure;Samples;Min_cycle;Max_cycle;Signal;HPM_P1;HPM_P2
2023/01/06 00:01:28;;;;;;;0.45;0.30;;;9.90;99.90;;;;;;5037186;28;20056;-76
2023/01/06 00:03:58;;;;;;;0.10;0.10;;;10.00;99.90;;;;;;5043127;28;20116;-76
2023/01/06 00:06:29;;;;;;;0.10;0.10;;;9.90;99.90;;;;;;5043001;28;20131;-76
2023/01/06 00:08:57;;;;;;;0.10;0.10;;;9.90;99.90;;;;;;5043931;28;20746;-76
2023/01/06 00:11:23;;;;;;;0.38;0.38;;;10.00;99.90;;;;;;5042008;28;20051;-76
2023/01/06 00:13:49;;;;;;;0.20;0.20;;;9.90;99.90;;;;;;5043646;28;20068;-76
2023/01/06 00:16:19;;;;;;;0.10;0.10;;;9.90;99.90;;;;;;5043260;28;20358;-77
2023/01/06 00:18:45;;;;;;;0.10;0.10;;;10.00;99.90;;;;;;5034532;28;20033;-76
2023/01/06 00:21:12;;;;;;;0.17;0.17;;;9.90;99.90;;;;;;5043302;28;20033;-77
2023/01/06 00:23:38;;;;;;;0.10;0.10;;;9.90;99.90;;;;;;5042702;28;20263;-77
2023/01/06 00:26:06;;;;;;;0.10;0.10;;;9.90;99.90;;;;;;5043130;28;20114;-76
2023/01/06 00:28:32;;;;;;;0.10;0.10;;;9.90;99.90;;;;;;5042546;28;20050;-77
2023/01/06 00:30:58;;;;;;;0.03;0.03;;;10.00;99.90;;;;;;5038551;28;20047;-77
2023/01/06 00:33:24;;;;;;;0.00;0.00;;;9.90;99.90;;;;;;5042922;28;20095;-78
2023/01/06 00:35:50;;;;;;;0.13;0.13;;;9.90;99.90;;;;;;5042742;28;20199;-76
2023/01/06 00:38:16;;;;;;;0.17;0.17;;;9.80;99.90;;;;;;5039129;28;20108;-77
2023/01/06 00:40:42;;;;;;;0.10;0.10;;;9.80;99.90;;;;;;5042421;28;20025;-77
2023/01/06 00:43:08;;;;;;;0.20;0.20;;;9.80;99.90;;;;;;5039557;28;20263;-77
2023/01/06 00:45:33;;;;;;;0.10;0.10;;;9.80;99.90;;;;;;5042745;28;20037;-77
2023/01/06 00:47:59;;;;;;;0.38;0.38;;;9.80;99.90;;;;;;5040126;28;20025;-77
2023/01/06 00:50:25;;;;;;;0.10;0.10;;;9.80;99.90;;;;;;5041039;28;20131;-76
2023/01/06 00:52:50;;;;;;;0.08;0.08;;;9.80;99.90;;;;;;5042202;28;20664;-79
2023/01/06 00:55:16;;;;;;;0.20;0.20;;;9.80;99.90;;;;;;5042492;28;20033;-78
2023/01/06 00:57:42;;;;;;;0.20;0.20;;;9.90;99.90;;;;;;5042263;28;20033;-77
2023/01/06 01:00:09;;;;;;;0.10;0.10;;;9.80;99.90;;;;;;5039619;28;20182;-77
2023/01/06 01:02:35;;;;;;;0.10;0.10;;;9.80;99.90;;;;;;5038854;28;20439;-77
2023/01/06 01:05:01;;;;;;;0.20;0.20;;;9.70;99.90;;;;;;5039776;28;20075;-78
2023/01/06 01:07:27;;;;;;;0.10;0.10;;;9.70;99.90;;;;;;5044016;28;20048;-77
2023/01/06 01:09:52;;;;;;;0.10;0.10;;;9.70;99.90;;;;;;5042598;28;20121;-78
2023/01/06 01:12:18;;;;;;;1.75;0.75;;;9.60;99.90;;;;;;5042647;28;20093;-77
2023/01/06 01:14:48;;;;;;;0.10;0.10;;;9.60;99.90;;;;;;5042654;28;20036;-76
2023/01/06 01:17:21;;;;;;;0.20;0.20;;;9.50;99.90;;;;;;5042056;28;20025;-77
2023/01/06 01:19:49;;;;;;;0.10;0.10;;;9.50;99.90;;;;;;5042762;28;20034;-77
2023/01/06 01:22:15;;;;;;;0.68;0.68;;;9.60;99.90;;;;;;5042545;28;20059;-78
2023/01/06 01:24:41;;;;;;;0.13;0.13;;;9.70;99.90;;;;;;5041209;28;20550;-78
2023/01/06 01:27:07;;;;;;;0.10;0.10;;;9.70;99.90;;;;;;5042325;28;20496;-77
2023/01/06 01:29:33;;;;;;;0.73;0.67;;;9.60;99.90;;;;;;5041840;28;20427;-76
2023/01/06 01:31:58;;;;;;;0.10;0.10;;;9.70;99.90;;;;;;5041763;28;20041;-78
2023/01/06 01:34:25;;;;;;;0.35;0.35;;;9.60;99.90;;;;;;5040284;28;20036;-78
2023/01/06 01:36:52;;;;;;;0.22;0.22;;;9.60;99.90;;;;;;5036997;28;20025;-77
2023/01/06 01:39:21;;;;;;;0.10;0.10;;;9.60;99.90;;;;;;5037853;28;20029;-77
2023/01/06 01:41:47;;;;;;;0.30;0.22;;;9.50;99.90;;;;;;5057346;28;20033;-76
2023/01/06 01:44:50;;;;;;;0.10;0.10;;;9.50;99.90;;;;;;5041785;28;20025;-77
2023/01/06 01:47:25;;;;;;;0.43;0.43;;;9.50;99.90;;;;;;5050833;28;20029;-77
2023/01/06 01:49:53;;;;;;;0.10;0.10;;;9.60;99.90;;;;;;5041109;28;20033;-77
2023/01/06 01:52:21;;;;;;;0.20;0.20;;;9.60;99.90;;;;;;5041165;28;20041;-77
2023/01/06 01:54:49;;;;;;;0.50;0.50;;;9.50;99.90;;;;;;5042282;28;20039;-77
2023/01/06 01:57:22;;;;;;;0.10;0.10;;;9.60;99.90;;;;;;5041854;28;20441;-76
2023/01/06 01:59:48;;;;;;;0.10;0.10;;;9.60;99.90;;;;;;5041554;28;20028;-77
2023/01/06 02:02:16;;;;;;;1.05;0.95;;;9.60;99.90;;;;;;5041527;28;20033;-77
2023/01/06 02:04:50;;;;;;;0.20;0.20;;;9.60;99.90;;;;;;5041095;28;20041;-76
2023/01/06 02:07:16;;;;;;;0.20;0.20;;;9.50;99.90;;;;;;5042069;28;20049;-76
2023/01/06 02:10:10;;;;;;;0.43;0.43;;;9.50;99.90;;;;;;5040808;28;20100;-77
2023/01/06 02:12:36;;;;;;;0.30;0.30;;;9.60;99.90;;;;;;5050485;28;20037;-77
2023/01/06 02:15:12;;;;;;;0.20;0.20;;;9.60;99.90;;;;;;5049099;28;20033;-79
2023/01/06 02:18:09;;;;;;;0.28;0.28;;;9.60;99.90;;;;;;5041346;28;20024;-79
2023/01/06 02:21:05;;;;;;;0.20;0.20;;;9.70;99.90;;;;;;5042894;28;20041;-77
2023/01/06 02:23:54;;;;;;;0.10;0.10;;;9.70;99.90;;;;;;5043871;28;20044;-78
2023/01/06 02:26:45;;;;;;;0.98;0.57;;;9.70;99.90;;;;;;5043105;28;20060;-77
2023/01/06 02:30:04;;;;;;;0.47;0.47;;;9.70;99.90;;;;;;5055122;28;20039;-78
2023/01/06 02:32:39;;;;;;;0.10;0.10;;;9.70;99.90;;;;;;5011625;28;20540;-77
2023/01/06 02:35:11;;;;;;;0.20;0.20;;;9.70;99.90;;;;;;5052044;28;20040;-77
2023/01/06 02:38:01;;;;;;;0.13;0.13;;;9.70;99.90;;;;;;5047566;28;20029;-77
2023/01/06 02:41:12;;;;;;;0.10;0.10;;;9.60;99.90;;;;;;5048994;28;20033;-77
2023/01/06 02:44:10;;;;;;;0.10;0.10;;;9.60;99.90;;;;;;5032731;28;20130;-77
2023/01/06 02:47:03;;;;;;;0.10;0.10;;;9.60;99.90;;;;;;5031316;28;20037;-77
2023/01/06 02:49:47;;;;;;;0.10;0.10;;;9.50;99.90;;;;;;5041648;28;20053;-78
2023/01/06 02:52:35;;;;;;;1.17;0.68;;;9.50;99.90;;;;;;5044316;28;20646;-77
2023/01/06 02:55:14;;;;;;;0.20;0.20;;;9.40;99.90;;;;;;5043884;28;20446;-76
2023/01/06 02:57:48;;;;;;;0.10;0.10;;;9.50;99.90;;;;;;5060366;28;20037;-78
2023/01/06 03:00:20;;;;;;;0.13;0.13;;;9.40;99.90;;;;;;5042500;28;20053;-78
2023/01/06 03:02:52;;;;;;;0.15;0.15;;;9.40;99.90;;;;;;5041457;28;20116;-78
2023/01/06 03:05:18;;;;;;;0.68;0.40;;;9.50;99.90;;;;;;5043112;28;20585;-78
2023/01/06 03:07:46;;;;;;;0.80;0.40;;;9.50;99.90;;;;;;5044221;28;20057;-78
2023/01/06 03:10:15;;;;;;;0.45;0.45;;;9.50;99.90;;;;;;5044380;28;20125;-76
2023/01/06 03:13:03;;;;;;;0.15;0.15;;;9.40;99.90;;;;;;5045464;28;20043;-76
2023/01/06 03:15:29;;;;;;;0.10;0.10;;;9.40;99.90;;;;;;5041986;28;20029;-77
2023/01/06 03:17:55;;;;;;;0.10;0.10;;;9.40;99.90;;;;;;5038476;28;20017;-78
2023/01/06 03:20:20;;;;;;;0.20;0.20;;;9.40;99.90;;;;;;5044520;28;20036;-77
2023/01/06 03:22:46;;;;;;;0.10;0.10;;;9.40;99.90;;;;;;5044792;28;20029;-78
2023/01/06 03:25:12;;;;;;;0.13;0.13;;;9.30;99.90;;;;;;5044826;28;20160;-77
2023/01/06 03:27:38;;;;;;;0.40;0.35;;;9.30;99.90;;;;;;5042517;28;20075;-77
2023/01/06 03:30:08;;;;;;;0.43;0.43;;;9.30;99.90;;;;;;5044180;28;20055;-78
2023/01/06 03:32:34;;;;;;;0.28;0.28;;;9.20;99.90;;;;;;5043673;28;20032;-78
2023/01/06 03:35:09;;;;;;;0.10;0.10;;;9.20;99.90;;;;;;5044599;28;20108;-78
2023/01/06 03:37:43;;;;;;;0.60;0.35;;;9.10;99.90;;;;;;5037244;28;20034;-78
2023/01/06 03:40:18;;;;;;;0.20;0.20;;;9.20;99.90;;;;;;5037610;28;20059;-77
2023/01/06 03:43:15;;;;;;;0.10;0.10;;;9.10;99.90;;;;;;5044200;28;20021;-78
2023/01/06 03:45:52;;;;;;;0.45;0.45;;;9.10;99.90;;;;;;5044237;28;20047;-79
2023/01/06 03:48:33;;;;;;;0.10;0.10;;;9.20;99.90;;;;;;5050184;28;20664;-79
2023/01/06 03:51:04;;;;;;;0.20;0.20;;;9.20;99.90;;;;;;5042723;28;20086;-79
2023/01/06 03:53:40;;;;;;;0.20;0.20;;;9.20;99.90;;;;;;5043961;28;20028;-78
2023/01/06 03:56:22;;;;;;;0.10;0.10;;;9.20;99.90;;;;;;5046464;28;20499;-79
2023/01/06 03:58:52;;;;;;;0.45;0.45;;;9.30;99.90;;;;;;5047320;28;20041;-79
2023/01/06 04:01:19;;;;;;;0.40;0.40;;;9.30;99.90;;;;;;5045353;28;20515;-78
2023/01/06 04:03:46;;;;;;;0.20;0.20;;;9.30;99.90;;;;;;5043322;28;20033;-79
2023/01/06 04:06:12;;;;;;;0.40;0.40;;;9.30;99.90;;;;;;5044666;28;20722;-79
2023/01/06 04:08:38;;;;;;;1.25;0.40;;;9.30;99.90;;;;;;5043268;28;20048;-78
2023/01/06 04:11:04;;;;;;;0.10;0.10;;;9.30;99.90;;;;;;5043785;28;20056;-79
2023/01/06 04:13:29;;;;;;;0.10;0.10;;;9.30;99.90;;;;;;5043446;28;20399;-78
2023/01/06 04:15:55;;;;;;;0.10;0.10;;;9.20;99.90;;;;;;5043026;28;20064;-78
2023/01/06 04:18:21;;;;;;;0.10;0.10;;;9.30;99.90;;;;;;5043283;28;20036;-78
2023/01/06 04:20:46;;;;;;;1.05;0.32;;;9.20;99.90;;;;;;5043430;28;20033;-79
2023/01/06 04:23:12;;;;;;;0.20;0.20;;;9.10;99.90;;;;;;5043058;28;20044;-78
2023/01/06 04:25:38;;;;;;;1.00;0.90;;;9.00;99.90;;;;;;5043481;28;20029;-79
2023/01/06 04:28:04;;;;;;;0.30;0.30;;;8.90;99.90;;;;;;5042768;28;20649;-79
2023/01/06 04:30:30;;;;;;;0.20;0.20;;;8.90;99.90;;;;;;5042943;28;20040;-78
2023/01/06 04:32:55;;;;;;;0.25;0.25;;;8.90;99.90;;;;;;5057818;28;20540;-79
2023/01/06 04:35:21;;;;;;;0.60;0.60;;;8.90;99.90;;;;;;5043200;28;20033;-79
2023/01/06 04:37:47;;;;;;;0.10;0.10;;;8.80;99.90;;;;;;5036340;28;20496;-78
2023/01/06 04:40:13;;;;;;;0.10;0.10;;;8.90;99.90;;;;;;5042387;28;21035;-78
2023/01/06 04:45:22;;;;;;;0.10;0.10;;;8.90;99.90;;;;;;5041753;28;20044;-78
2023/01/06 04:47:48;;;;;;;0.20;0.20;;;8.90;99.90;;;;;;5042706;28;20029;-78
2023/01/06 04:50:14;;;;;;;0.45;0.45;;;9.00;99.90;;;;;;5042257;28;20028;-78
2023/01/06 04:52:40;;;;;;;0.20;0.20;;;9.00;99.90;;;;;;5039301;28;20033;-78
2023/01/06 04:55:06;;;;;;;0.10;0.10;;;9.10;99.90;;;;;;5041922;28;20025;-78
2023/01/06 04:57:31;;;;;;;0.10;0.10;;;9.10;99.90;;;;;;5042776;28;20650;-79
2023/01/06 04:59:57;;;;;;;0.10;0.10;;;9.10;99.90;;;;;;5042451;28;20036;-79
2023/01/06 05:02:23;;;;;;;0.20;0.20;;;9.20;99.90;;;;;;5040340;28;20116;-78
2023/01/06 05:04:48;;;;;;;0.20;0.20;;;9.20;99.90;;;;;;5040903;28;20033;-78
2023/01/06 05:07:14;;;;;;;0.10;0.10;;;9.20;99.90;;;;;;5042180;28;20163;-78
2023/01/06 05:09:40;;;;;;;0.10;0.10;;;9.20;99.90;;;;;;5046858;28;20036;-78
2023/01/06 05:12:06;;;;;;;0.20;0.20;;;9.30;99.90;;;;;;5041853;28;20067;-78
2023/01/06 05:14:31;;;;;;;0.00;0.00;;;9.30;99.90;;;;;;5042277;28;20025;-79
2023/01/06 05:16:57;;;;;;;0.20;0.20;;;9.30;99.90;;;;;;5042010;28;20029;-78
2023/01/06 05:19:23;;;;;;;0.47;0.43;;;9.10;99.90;;;;;;5041828;28;20025;-78
2023/01/06 05:21:48;;;;;;;0.20;0.20;;;9.10;99.90;;;;;;5041980;28;20559;-78
2023/01/06 05:24:14;;;;;;;0.13;0.13;;;9.10;99.90;;;;;;5042777;28;20773;-78
2023/01/06 05:26:40;;;;;;;0.20;0.20;;;9.20;99.90;;;;;;5042034;28;20480;-79
2023/01/06 05:29:06;;;;;;;0.50;0.50;;;9.20;99.90;;;;;;5042076;28;20040;-78
2023/01/06 05:31:31;;;;;;;0.20;0.20;;;9.10;99.90;;;;;;5041738;28;20083;-78
2023/01/06 05:33:57;;;;;;;0.45;0.45;;;9.10;99.90;;;;;;5042185;28;20028;-78
2023/01/06 05:36:23;;;;;;;2.58;1.08;;;9.10;99.90;;;;;;5041906;28;20456;-78
2023/01/06 05:38:53;;;;;;;0.43;0.43;;;9.20;99.90;;;;;;5036044;28;20072;-79
2023/01/06 05:41:19;;;;;;;0.20;0.20;;;9.10;99.90;;;;;;5039484;28;20029;-79
2023/01/06 05:43:44;;;;;;;0.27;0.27;;;9.20;99.90;;;;;;5041888;28;20029;-78
2023/01/06 05:46:11;;;;;;;0.22;0.22;;;9.20;99.90;;;;;;5042389;28;20091;-76
2023/01/06 05:48:38;;;;;;;0.10;0.10;;;9.20;99.90;;;;;;5041781;28;20033;-77
2023/01/06 05:51:06;;;;;;;1.08;0.70;;;9.20;99.90;;;;;;5036984;28;20047;-78
2023/01/06 05:53:34;;;;;;;0.63;0.63;;;9.20;99.90;;;;;;5043099;28;20017;-78
2023/01/06 05:56:01;;;;;;;0.47;0.47;;;9.30;99.90;;;;;;5045218;28;20029;-79
2023/01/06 05:58:27;;;;;;;0.45;0.45;;;9.30;99.90;;;;;;5046242;28;20037;-77
2023/01/06 06:00:53;;;;;;;0.10;0.10;;;9.40;99.90;;;;;;5041311;28;20675;-78
2023/01/06 06:03:19;;;;;;;0.20;0.20;;;9.30;99.90;;;;;;5043567;28;20043;-77
2023/01/06 06:05:44;;;;;;;0.08;0.08;;;9.40;99.90;;;;;;5044587;28;20101;-81
2023/01/06 06:08:10;;;;;;;0.10;0.10;;;9.40;99.90;;;;;;5034170;28;20059;-79
2023/01/06 06:10:36;;;;;;;1.45;0.57;;;9.40;99.90;;;;;;5039560;28;20116;-79
2023/01/06 06:13:02;;;;;;;0.90;0.47;;;9.40;99.90;;;;;;5041266;28;20057;-78
2023/01/06 06:15:27;;;;;;;0.13;0.13;;;9.30;99.90;;;;;;5038781;28;20035;-79
2023/01/06 06:17:53;;;;;;;0.10;0.10;;;9.30;99.90;;;;;;5030787;28;20021;-78
2023/01/06 06:20:19;;;;;;;0.10;0.10;;;9.30;99.90;;;;;;5036876;28;20135;-78
2023/01/06 06:22:44;;;;;;;0.20;0.20;;;9.40;99.90;;;;;;5037799;28;20068;-77
2023/01/06 06:25:10;;;;;;;0.20;0.20;;;9.40;99.90;;;;;;5033997;28;20026;-77
2023/01/06 06:27:37;;;;;;;0.30;0.30;;;9.40;99.90;;;;;;5039030;28;20552;-78
2023/01/06 06:30:04;;;;;;;0.20;0.20;;;9.30;99.90;;;;;;5045963;28;20033;-76
2023/01/06 06:32:30;;;;;;;0.10;0.10;;;9.20;99.90;;;;;;5034842;28;20041;-76
2023/01/06 06:34:56;;;;;;;0.10;0.10;;;9.30;99.90;;;;;;5043167;28;20053;-77
2023/01/06 06:37:21;;;;;;;0.10;0.10;;;9.20;99.90;;;;;;5046439;28;20040;-79
2023/01/06 06:39:47;;;;;;;0.52;0.52;;;9.20;99.90;;;;;;5053624;28;20507;-76
2023/01/06 06:42:13;;;;;;;0.10;0.10;;;9.30;99.90;;;;;;5046216;28;20029;-77
2023/01/06 06:44:39;;;;;;;0.32;0.32;;;9.20;99.90;;;;;;5062030;28;20055;-77
2023/01/06 06:47:04;;;;;;;0.25;0.25;;;9.20;99.90;;;;;;5050407;28;20762;-77
2023/01/06 06:49:30;;;;;;;0.20;0.20;;;9.20;99.90;;;;;;5041824;28;20731;-76
2023/01/06 06:51:56;;;;;;;0.10;0.10;;;9.20;99.90;;;;;;5052233;28;20074;-77
2023/01/06 06:54:21;;;;;;;0.80;0.63;;;9.20;99.90;;;;;;5035345;28;20026;-76
2023/01/06 06:56:47;;;;;;;0.20;0.20;;;9.20;99.90;;;;;;5042037;28;20051;-77
2023/01/06 06:59:13;;;;;;;0.25;0.25;;;9.20;99.90;;;;;;5057961;28;20036;-78
2023/01/06 07:01:39;;;;;;;0.10;0.10;;;9.20;99.90;;;;;;5054693;28;20132;-78
2023/01/06 07:04:04;;;;;;;0.20;0.20;;;9.10;99.90;;;;;;5045674;28;20435;-76
2023/01/06 07:06:30;;;;;;;0.20;0.20;;;9.10;99.90;;;;;;5046650;28;20092;-76
2023/01/06 07:08:56;;;;;;;0.20;0.20;;;9.00;99.90;;;;;;5045634;28;20052;-77
2023/01/06 07:11:22;;;;;;;0.10;0.10;;;9.00;99.90;;;;;;5045718;28;20045;-76
2023/01/06 07:13:48;;;;;;;0.10;0.10;;;9.00;99.90;;;;;;5045585;28;20574;-77
2023/01/06 07:16:14;;;;;;;0.10;0.10;;;9.10;99.90;;;;;;5045698;28;20626;-77
2023/01/06 07:18:40;;;;;;;0.20;0.20;;;9.20;99.90;;;;;;5043117;28;20029;-76
2023/01/06 07:21:06;;;;;;;0.10;0.10;;;9.10;99.90;;;;;;5046307;28;20040;-78
2023/01/06 07:23:32;;;;;;;0.52;0.52;;;9.10;99.90;;;;;;5051220;28;20463;-76
2023/01/06 07:26:00;;;;;;;4.28;2.88;;;9.10;99.90;;;;;;5039490;28;20032;-77
2023/01/06 07:28:28;;;;;;;5.15;1.73;;;9.00;99.90;;;;;;5034139;28;20021;-76
2023/01/06 07:30:54;;;;;;;10.50;4.47;;;9.10;99.90;;;;;;5049087;28;20065;-78
2023/01/06 07:33:21;;;;;;;8.75;4.88;;;9.10;99.90;;;;;;5040559;28;20108;-76
2023/01/06 07:35:50;;;;;;;6.13;3.15;;;9.10;99.90;;;;;;5044523;28;20040;-76
2023/01/06 07:38:16;;;;;;;7.82;3.22;;;9.00;99.90;;;;;;5050596;28;20056;-78
2023/01/06 07:40:41;;;;;;;6.05;2.45;;;9.00;99.90;;;;;;5044295;28;20178;-76
2023/01/06 07:43:09;;;;;;;13.43;1.45;;;9.10;99.90;;;;;;5043776;28;20028;-76
2023/01/06 07:45:35;;;;;;;3.60;2.45;;;9.10;99.90;;;;;;5035685;28;20074;-76
2023/01/06 07:48:01;;;;;;;3.35;1.23;;;9.10;99.90;;;;;;5044164;28;20025;-77
2023/01/06 07:50:27;;;;;;;7.60;2.53;;;9.20;99.90;;;;;;5032859;28;20033;-78
2023/01/06 07:52:56;;;;;;;5.40;2.67;;;9.20;99.90;;;;;;5044445;28;20036;-77
2023/01/06 07:55:22;;;;;;;4.60;2.67;;;9.10;99.90;;;;;;5044766;28;20496;-76
2023/01/06 07:57:47;;;;;;;1.23;1.17;;;9.20;99.90;;;;;;5044248;28;20078;-76
2023/01/06 08:00:14;;;;;;;2.95;1.90;;;9.20;99.90;;;;;;5043791;28;20128;-77
2023/01/06 08:02:39;;;;;;;2.45;1.85;;;9.20;99.90;;;;;;5043757;28;20036;-76
2023/01/06 08:05:05;;;;;;;0.68;0.68;;;9.30;99.90;;;;;;5044961;28;20029;-77
2023/01/06 08:07:31;;;;;;;2.38;1.58;;;9.30;99.90;;;;;;5042793;28;20059;-77
2023/01/06 08:09:56;;;;;;;0.20;0.20;;;9.30;99.90;;;;;;5044152;28;20140;-77
2023/01/06 08:12:22;;;;;;;3.20;1.38;;;9.30;99.90;;;;;;5043440;28;20107;-76
2023/01/06 08:14:48;;;;;;;0.50;0.50;;;9.40;99.90;;;;;;5044003;28;20017;-77
2023/01/06 08:17:14;;;;;;;0.80;0.75;;;9.40;99.90;;;;;;5043523;28;20079;-76
2023/01/06 08:19:39;;;;;;;0.75;0.75;;;9.40;99.90;;;;;;5043645;28;20029;-76
2023/01/06 08:22:05;;;;;;;2.78;1.38;;;9.40;99.90;;;;;;5043501;28;20025;-75
2023/01/06 08:24:31;;;;;;;1.83;0.38;;;9.50;99.90;;;;;;5042452;28;20029;-78
2023/01/06 08:26:57;;;;;;;0.65;0.65;;;9.50;99.90;;;;;;5043631;28;20040;-78
2023/01/06 08:29:24;;;;;;;0.30;0.30;;;9.60;99.90;;;;;;5042302;28;20063;-77
2023/01/06 08:31:49;;;;;;;;;;;9.50;99.90;;;;;;5043397;28;20045;-76
2023/01/06 08:34:16;;;;;;;0.10;0.10;;;9.40;99.90;;;;;;5043181;28;19909;-76
2023/01/06 08:36:43;;;;;;;0.20;0.20;;;9.50;99.90;;;;;;5049364;28;20030;-75
2023/01/06 08:39:10;;;;;;;0.95;0.77;;;9.50;99.90;;;;;;5043117;28;20104;-76
2023/01/06 08:41:37;;;;;;;0.20;0.20;;;9.60;99.90;;;;;;5043027;28;20079;-76
2023/01/06 08:44:03;;;;;;;0.90;0.80;;;9.60;99.90;;;;;;5043423;28;20020;-78
2023/01/06 08:46:28;;;;;;;0.20;0.20;;;9.60;99.90;;;;;;5043369;28;20571;-79
2023/01/06 08:48:56;;;;;;;0.88;0.70;;;9.70;99.90;;;;;;5042282;28;20078;-77
2023/01/06 08:51:23;;;;;;;0.40;0.40;;;9.80;99.90;;;;;;5042083;28;20037;-76
2023/01/06 08:53:49;;;;;;;;;;;9.70;99.90;;;;;;5042499;28;20110;-76
2023/01/06 08:56:21;;;;;;;1.90;1.00;;;9.70;99.90;;;;;;5042717;28;19995;-76
2023/01/06 08:58:56;;;;;;;0.50;0.50;;;9.60;99.90;;;;;;5042342;28;20099;-75
2023/01/06 09:01:24;;;;;;;1.02;1.02;;;9.60;99.90;;;;;;5042736;28;20036;-76
2023/01/06 09:03:51;;;;;;;1.15;1.15;;;9.60;99.90;;;;;;5041085;28;20181;-75
2023/01/06 09:06:18;;;;;;;0.30;0.30;;;9.60;99.90;;;;;;5039956;28;20025;-78
2023/01/06 09:08:44;;;;;;;;;;;9.60;99.90;;;;;;5043320;28;20818;-77
2023/01/06 09:11:11;;;;;;;0.17;0.17;;;9.70;99.90;;;;;;5042499;28;19921;-78
2023/01/06 09:13:36;;;;;;;;;;;9.80;99.90;;;;;;5043100;28;20712;-77
2023/01/06 09:16:07;;;;;;;0.50;0.50;;;9.80;99.90;;;;;;5042846;28;19951;-76
2023/01/06 09:18:33;;;;;;;0.30;0.30;;;9.70;99.90;;;;;;5042496;28;20755;-76
2023/01/06 09:20:59;;;;;;;0.75;0.75;;;9.70;99.90;;;;;;5042473;28;20040;-76
2023/01/06 09:23:25;;;;;;;0.10;0.10;;;9.80;99.90;;;;;;5042650;28;20052;-77
2023/01/06 09:25:51;;;;;;;0.47;0.47;;;9.80;99.90;;;;;;5041555;28;20286;-75
2023/01/06 09:28:16;;;;;;;0.32;0.32;;;9.90;99.90;;;;;;5042377;28;20029;-76
2023/01/06 09:30:45;;;;;;;0.10;0.10;;;9.90;99.90;;;;;;5042352;28;20028;-75
2023/01/06 09:33:11;;;;;;;0.73;0.73;;;10.00;99.90;;;;;;5042782;28;20071;-78
2023/01/06 09:35:36;;;;;;;2.78;0.47;;;10.00;99.90;;;;;;5042938;28;20040;-76
2023/01/06 09:38:02;;;;;;;1.73;0.73;;;10.10;99.90;;;;;;5041084;28;20033;-76
2023/01/06 09:40:48;;;;;;;5.88;1.50;;;10.00;99.90;;;;;;5041159;28;20048;-77
2023/01/06 09:43:38;;;;;;;0.30;0.30;;;9.90;99.90;;;;;;5042254;28;20029;-76
2023/01/06 09:46:07;;;;;;;1.25;0.50;;;10.00;99.90;;;;;;5034769;28;20778;-76
2023/01/06 09:48:38;;;;;;;0.40;0.40;;;10.10;99.90;;;;;;5036428;28;20074;-76
2023/01/06 09:51:06;;;;;;;0.17;0.17;;;10.00;99.90;;;;;;5041301;28;20846;-76
2023/01/06 09:53:42;;;;;;;0.20;0.20;;;10.10;99.90;;;;;;5035833;28;20104;-77
2023/01/06 09:56:14;;;;;;;0.15;0.15;;;10.10;99.90;;;;;;5042270;28;20059;-78
2023/01/06 09:58:50;;;;;;;0.55;0.52;;;10.10;99.90;;;;;;5041965;28;20926;-77
2023/01/06 10:01:22;;;;;;;0.30;0.30;;;10.10;99.90;;;;;;5051685;28;20033;-77
2023/01/06 10:03:48;;;;;;;0.13;0.13;;;10.20;99.90;;;;;;5041635;28;20021;-77
2023/01/06 10:06:53;;;;;;;0.05;0.05;;;10.20;99.90;;;;;;5039845;28;20548;-75
2023/01/06 10:09:43;;;;;;;0.20;0.20;;;10.30;99.90;;;;;;5044566;28;20179;-76
2023/01/06 10:12:27;;;;;;;0.20;0.20;;;10.30;99.90;;;;;;5041679;28;20037;-79
2023/01/06 10:15:17;;;;;;;0.88;0.52;;;10.40;99.90;;;;;;5040051;28;20032;-76
2023/01/06 10:18:34;;;;;;;0.10;0.10;;;10.40;99.90;;;;;;5041810;28;20032;-76
2023/01/06 10:21:31;;;;;;;0.10;0.10;;;10.40;99.90;;;;;;5014738;28;20041;-76
2023/01/06 10:24:29;;;;;;;0.10;0.10;;;10.30;99.90;;;;;;5039251;28;20029;-79
2023/01/06 10:27:19;;;;;;;0.60;0.60;;;10.30;99.90;;;;;;5037985;28;20116;-76
2023/01/06 10:29:46;;;;;;;0.10;0.10;;;10.40;99.90;;;;;;5035995;28;20040;-76
2023/01/06 10:32:15;;;;;;;0.15;0.15;;;10.40;99.90;;;;;;5039699;28;20040;-76
2023/01/06 10:34:45;;;;;;;0.10;0.10;;;10.50;99.90;;;;;;5035785;28;20090;-77
2023/01/06 10:37:19;;;;;;;0.10;0.10;;;10.40;99.90;;;;;;5041875;28;20825;-78
2023/01/06 10:39:48;;;;;;;0.77;0.40;;;10.50;99.90;;;;;;5040368;28;20047;-76
2023/01/06 10:45:04;;;;;;;0.30;0.30;;;10.50;99.90;;;;;;5045071;28;20082;-76
2023/01/06 10:47:32;;;;;;;0.88;0.88;;;10.60;99.90;;;;;;5050994;28;20120;-75
2023/01/06 10:49:59;;;;;;;0.43;0.43;;;10.70;99.90;;;;;;5043658;28;20068;-75
2023/01/06 10:52:26;;;;;;;0.20;0.20;;;10.70;99.90;;;;;;5044587;28;20682;-76
2023/01/06 10:54:53;;;;;;;;;;;10.80;99.90;;;;;;5045464;28;20029;-76
2023/01/06 10:57:31;;;;;;;0.25;0.20;;;10.80;99.90;;;;;;5043208;28;19908;-76
2023/01/06 11:00:26;;;;;;;0.40;0.40;;;10.90;99.90;;;;;;5045430;28;20115;-77
2023/01/06 11:02:54;;;;;;;0.38;0.38;;;11.00;99.90;;;;;;5046078;28;20041;-76
2023/01/06 11:05:26;;;;;;;0.30;0.30;;;10.90;99.90;;;;;;5044533;28;20099;-76
2023/01/06 11:08:07;;;;;;;0.47;0.47;;;10.90;99.90;;;;;;5041872;28;20158;-76
2023/01/06 11:10:36;;;;;;;0.38;0.20;;;11.10;99.90;;;;;;5044271;28;20025;-78
2023/01/06 11:13:03;;;;;;;0.10;0.10;;;11.10;99.90;;;;;;5042626;28;20025;-76
2023/01/06 11:15:37;;;;;;;0.00;0.00;;;11.10;99.90;;;;;;5044641;28;20029;-77
2023/01/06 11:18:04;;;;;;;0.00;0.00;;;11.10;99.90;;;;;;5044660;28;20112;-77
2023/01/06 11:20:32;;;;;;;0.10;0.10;;;11.30;99.90;;;;;;5044258;28;20104;-76
2023/01/06 11:23:20;;;;;;;0.10;0.10;;;11.20;99.90;;;;;;5044072;28;20086;-75
2023/01/06 11:26:11;;;;;;;0.32;0.32;;;11.10;99.90;;;;;;5044149;28;20031;-77
2023/01/06 11:28:38;;;;;;;0.10;0.10;;;11.10;99.90;;;;;;5040130;28;20040;-77
2023/01/06 11:31:30;;;;;;;0.10;0.10;;;11.10;99.90;;;;;;5033723;28;20645;-75
2023/01/06 11:34:03;;;;;;;0.30;0.30;;;11.10;99.90;;;;;;5040206;28;20670;-76
2023/01/06 11:36:31;;;;;;;0.30;0.30;;;11.30;99.90;;;;;;5039398;28;20063;-78
2023/01/06 11:39:03;;;;;;;0.28;0.28;;;11.10;99.90;;;;;;5044150;28;20805;-77
2023/01/06 11:41:36;;;;;;;0.20;0.20;;;11.30;99.90;;;;;;5043884;28;20074;-76
2023/01/06 11:44:12;;;;;;;0.47;0.10;;;11.20;99.90;;;;;;5043852;28;20039;-76
2023/01/06 11:46:45;;;;;;;0.73;0.73;;;11.20;99.90;;;;;;5043805;28;20818;-79
2023/01/06 11:49:24;;;;;;;0.17;0.17;;;11.20;99.90;;;;;;5035994;28;20043;-78
2023/01/06 11:51:50;;;;;;;0.75;0.35;;;11.30;99.90;;;;;;5034989;28;20037;-77
2023/01/06 11:54:37;;;;;;;0.20;0.20;;;11.50;99.90;;;;;;5044005;28;20031;-79
2023/01/06 11:57:19;;;;;;;0.00;0.00;;;11.50;99.90;;;;;;5043569;28;20522;-76
2023/01/06 11:59:57;;;;;;;0.10;0.10;;;11.60;99.90;;;;;;5043548;28;20079;-76
2023/01/06 12:02:31;;;;;;;0.57;0.50;;;11.80;99.90;;;;;;5043486;28;20033;-76
2023/01/06 12:05:00;;;;;;;0.10;0.10;;;11.80;99.90;;;;;;5043572;28;20114;-76
2023/01/06 12:07:45;;;;;;;0.15;0.15;;;11.80;99.90;;;;;;5052103;28;20131;-78
2023/01/06 12:10:21;;;;;;;0.15;0.15;;;12.00;99.90;;;;;;5040737;28;20199;-76
2023/01/06 12:12:47;;;;;;;0.30;0.30;;;11.90;99.90;;;;;;5043240;28;20163;-79
2023/01/06 12:15:15;;;;;;;0.30;0.30;;;11.90;99.90;;;;;;5043245;28;20028;-76
2023/01/06 12:17:45;;;;;;;0.40;0.40;;;11.80;99.90;;;;;;5042783;28;20114;-78
2023/01/06 12:20:25;;;;;;;0.30;0.30;;;11.90;99.90;;;;;;5043063;28;20036;-76
2023/01/06 12:23:00;;;;;;;0.63;0.63;;;12.10;99.90;;;;;;5042669;28;20029;-77
2023/01/06 12:25:36;;;;;;;0.00;0.00;;;12.10;99.90;;;;;;5038519;28;20024;-76
2023/01/06 12:28:13;;;;;;;0.40;0.40;;;12.20;99.90;;;;;;5038902;28;20021;-75
2023/01/06 12:31:25;;;;;;;0.75;0.30;;;12.10;99.90;;;;;;5055103;28;20777;-77
2023/01/06 12:33:55;;;;;;;1.38;0.75;;;12.20;99.90;;;;;;5025285;28;20069;-77
2023/01/06 12:36:52;;;;;;;0.57;0.57;;;12.20;99.90;;;;;;5041003;28;20029;-76
2023/01/06 12:39:23;;;;;;;0.57;0.57;;;12.30;99.90;;;;;;5042593;28;20044;-76
2023/01/06 12:41:54;;;;;;;1.27;0.95;;;12.40;99.90;;;;;;5042554;28;20044;-77
2023/01/06 12:44:41;;;;;;;0.60;0.60;;;12.40;99.90;;;;;;5042583;28;20104;-77
2023/01/06 12:47:18;;;;;;;0.88;0.85;;;12.40;99.90;;;;;;5050744;28;20029;-77
2023/01/06 12:50:30;;;;;;;0.85;0.73;;;12.30;99.90;;;;;;5042918;28;20025;-77
2023/01/06 12:53:17;;;;;;;0.77;0.50;;;12.00;99.90;;;;;;5037926;28;20636;-76
2023/01/06 12:55:59;;;;;;;0.20;0.20;;;12.10;99.90;;;;;;5042832;28;20040;-76
2023/01/06 12:58:34;;;;;;;0.22;0.22;;;12.00;99.90;;;;;;5051903;28;20025;-76
2023/01/06 13:01:08;;;;;;;0.13;0.13;;;12.10;99.90;;;;;;5039123;28;20063;-76
2023/01/06 13:04:06;;;;;;;0.32;0.32;;;12.20;99.90;;;;;;5037703;28;20024;-77
2023/01/06 13:06:59;;;;;;;0.25;0.25;;;12.30;99.90;;;;;;5051232;28;20029;-76
2023/01/06 13:10:00;;;;;;;0.20;0.20;;;12.30;99.90;;;;;;5042040;28;20055;-77
2023/01/06 13:12:38;;;;;;;1.15;0.40;;;12.20;99.90;;;;;;5018957;28;20720;-78
2023/01/06 13:15:25;;;;;;;0.28;0.28;;;12.00;99.90;;;;;;5027941;28;20142;-76
2023/01/06 13:18:32;;;;;;;0.43;0.30;;;11.90;99.90;;;;;;5041830;28;20029;-78
2023/01/06 13:21:12;;;;;;;0.85;0.60;;;11.90;99.90;;;;;;5024923;28;20045;-77
2023/01/06 13:23:56;;;;;;;0.75;0.75;;;11.80;99.90;;;;;;5042357;28;20028;-77